sensor_id;sensor_type;location;lat;lon;timestamp;pressure;altitude;pressure_sealevel;temperature;humidity
63395;BME280;49531;-34.520;150.798;2023-12-14T00:00:10;99548.09;;;30.23;49.70
63395;BME280;49531;-34.520;150.798;2023-12-14T00:02:38;99539.31;;;30.33;48.90
63395;BME280;49531;-34.520;150.798;2023-12-14T00:05:05;99533.13;;;30.40;48.11
63395;BME280;49531;-34.520;150.798;2023-12-14T00:07:33;99532.53;;;30.46;47.64
63395;BME280;49531;-34.520;150.798;2023-12-14T00:10:00;99524.63;;;30.61;46.97
63395;BME280;49531;-34.520;150.798;2023-12-14T00:12:27;99526.75;;;30.67;46.53
63395;BME280;49531;-34.520;150.798;2023-12-14T00:14:54;99525.41;;;30.77;45.78
63395;BME280;49531;-34.520;150.798;2023-12-14T00:17:21;99514.53;;;30.84;45.61
63395;BME280;49531;-34.520;150.798;2023-12-14T00:19:48;99509.19;;;30.91;45.48
63395;BME280;49531;-34.520;150.798;2023-12-14T00:22:16;99516.91;;;31.01;45.06
63395;BME280;49531;-34.520;150.798;2023-12-14T00:24:43;99519.81;;;31.08;44.46
63395;BME280;49531;-34.520;150.798;2023-12-14T00:27:10;99516.81;;;31.13;44.78
63395;BME280;49531;-34.520;150.798;2023-12-14T00:29:37;99511.41;;;31.21;44.61
63395;BME280;49531;-34.520;150.798;2023-12-14T00:32:05;99509.09;;;31.23;45.07
63395;BME280;49531;-34.520;150.798;2023-12-14T00:34:32;99511.41;;;31.21;45.32
63395;BME280;49531;-34.520;150.798;2023-12-14T00:36:59;99515.34;;;31.20;46.03
63395;BME280;49531;-34.520;150.798;2023-12-14T00:39:26;99505.50;;;31.19;46.06
63395;BME280;49531;-34.520;150.798;2023-12-14T00:41:54;99500.34;;;31.17;46.27
63395;BME280;49531;-34.520;150.798;2023-12-14T00:44:24;99494.00;;;31.16;46.51
63395;BME280;49531;-34.520;150.798;2023-12-14T00:46:51;99494.81;;;31.17;46.37
63395;BME280;49531;-34.520;150.798;2023-12-14T00:49:18;99495.97;;;31.16;46.50
63395;BME280;49531;-34.520;150.798;2023-12-14T00:51:45;99499.53;;;31.16;45.94
63395;BME280;49531;-34.520;150.798;2023-12-14T00:54:14;99482.63;;;31.18;45.65
63395;BME280;49531;-34.520;150.798;2023-12-14T00:56:42;99486.59;;;31.21;45.70
63395;BME280;49531;-34.520;150.798;2023-12-14T00:59:10;99477.16;;;31.22;45.86
63395;BME280;49531;-34.520;150.798;2023-12-14T01:01:38;99473.66;;;31.25;45.63
63395;BME280;49531;-34.520;150.798;2023-12-14T01:04:05;99464.22;;;31.26;45.63
63395;BME280;49531;-34.520;150.798;2023-12-14T01:06:33;99456.38;;;31.28;45.38
63395;BME280;49531;-34.520;150.798;2023-12-14T01:09:00;99450.50;;;31.29;45.48
63395;BME280;49531;-34.520;150.798;2023-12-14T01:11:27;99452.09;;;31.30;45.88
63395;BME280;49531;-34.520;150.798;2023-12-14T01:13:54;99448.97;;;31.32;45.67
63395;BME280;49531;-34.520;150.798;2023-12-14T01:16:21;99445.06;;;31.33;45.92
63395;BME280;49531;-34.520;150.798;2023-12-14T01:18:52;99447.09;;;31.36;45.58
63395;BME280;49531;-34.520;150.798;2023-12-14T01:21:19;99436.03;;;31.36;45.13
63395;BME280;49531;-34.520;150.798;2023-12-14T01:23:46;99438.50;;;31.41;44.76
63395;BME280;49531;-34.520;150.798;2023-12-14T01:26:13;99422.38;;;31.43;44.50
63395;BME280;49531;-34.520;150.798;2023-12-14T01:28:41;99421.66;;;31.46;44.16
63395;BME280;49531;-34.520;150.798;2023-12-14T01:31:08;99426.44;;;31.49;44.04
63395;BME280;49531;-34.520;150.798;2023-12-14T01:33:35;99417.38;;;31.48;44.25
63395;BME280;49531;-34.520;150.798;2023-12-14T01:36:02;99418.53;;;31.47;44.22
63395;BME280;49531;-34.520;150.798;2023-12-14T01:38:29;99418.59;;;31.51;44.25
63395;BME280;49531;-34.520;150.798;2023-12-14T01:40:56;99417.06;;;31.54;44.19
63395;BME280;49531;-34.520;150.798;2023-12-14T01:43:25;99410.47;;;31.58;43.88
63395;BME280;49531;-34.520;150.798;2023-12-14T01:45:52;99423.06;;;31.59;43.86
63395;BME280;49531;-34.520;150.798;2023-12-14T01:48:19;99423.50;;;31.61;43.12
63395;BME280;49531;-34.520;150.798;2023-12-14T01:50:46;99402.22;;;31.62;42.97
63395;BME280;49531;-34.520;150.798;2023-12-14T01:53:14;99407.00;;;31.65;42.54
63395;BME280;49531;-34.520;150.798;2023-12-14T01:55:41;99402.75;;;31.67;42.59
63395;BME280;49531;-34.520;150.798;2023-12-14T01:58:08;99389.25;;;31.66;42.23
63395;BME280;49531;-34.520;150.798;2023-12-14T02:01:03;99401.09;;;31.66;42.21
63395;BME280;49531;-34.520;150.798;2023-12-14T02:03:34;99399.25;;;31.70;42.40
63395;BME280;49531;-34.520;150.798;2023-12-14T02:06:01;99414.63;;;31.71;41.25
63395;BME280;49531;-34.520;150.798;2023-12-14T02:08:29;99396.53;;;31.74;39.96
63395;BME280;49531;-34.520;150.798;2023-12-14T02:10:56;99389.06;;;31.74;39.02
63395;BME280;49531;-34.520;150.798;2023-12-14T02:13:23;99400.53;;;31.76;39.45
63395;BME280;49531;-34.520;150.798;2023-12-14T02:15:52;99393.47;;;31.79;39.25
63395;BME280;49531;-34.520;150.798;2023-12-14T02:18:20;99403.28;;;31.76;37.91
63395;BME280;49531;-34.520;150.798;2023-12-14T02:20:47;99407.66;;;31.77;37.40
63395;BME280;49531;-34.520;150.798;2023-12-14T02:23:14;99378.13;;;31.81;37.38
63395;BME280;49531;-34.520;150.798;2023-12-14T02:25:41;99382.91;;;31.85;37.16
63395;BME280;49531;-34.520;150.798;2023-12-14T02:28:09;99390.03;;;31.86;37.02
63395;BME280;49531;-34.520;150.798;2023-12-14T02:30:36;99376.66;;;31.88;37.43
63395;BME280;49531;-34.520;150.798;2023-12-14T02:33:03;99385.44;;;31.93;37.11
63395;BME280;49531;-34.520;150.798;2023-12-14T02:35:30;99377.94;;;31.94;37.18
63395;BME280;49531;-34.520;150.798;2023-12-14T02:37:57;99379.53;;;31.95;37.55
63395;BME280;49531;-34.520;150.798;2023-12-14T02:40:25;99360.63;;;31.97;36.84
63395;BME280;49531;-34.520;150.798;2023-12-14T02:42:52;99380.78;;;31.97;37.22
63395;BME280;49531;-34.520;150.798;2023-12-14T02:45:22;99363.81;;;31.99;37.06
63395;BME280;49531;-34.520;150.798;2023-12-14T02:47:49;99360.66;;;32.00;37.34
63395;BME280;49531;-34.520;150.798;2023-12-14T02:50:18;99363.06;;;32.02;36.69
63395;BME280;49531;-34.520;150.798;2023-12-14T02:52:45;99359.13;;;32.03;35.92
63395;BME280;49531;-34.520;150.798;2023-12-14T02:55:12;99353.34;;;32.11;34.37
63395;BME280;49531;-34.520;150.798;2023-12-14T02:57:40;99356.50;;;32.36;33.74
63395;BME280;49531;-34.520;150.798;2023-12-14T03:00:07;99355.94;;;32.54;33.45
63395;BME280;49531;-34.520;150.798;2023-12-14T03:02:35;99347.03;;;32.67;33.49
63395;BME280;49531;-34.520;150.798;2023-12-14T03:05:02;99348.38;;;32.77;33.71
63395;BME280;49531;-34.520;150.798;2023-12-14T03:07:29;99367.09;;;32.91;32.83
63395;BME280;49531;-34.520;150.798;2023-12-14T03:09:56;99359.72;;;33.02;33.71
63395;BME280;49531;-34.520;150.798;2023-12-14T03:12:23;99341.19;;;33.06;32.61
63395;BME280;49531;-34.520;150.798;2023-12-14T03:14:50;99349.19;;;33.14;32.23
63395;BME280;49531;-34.520;150.798;2023-12-14T03:17:17;99348.06;;;33.23;32.01
63395;BME280;49531;-34.520;150.798;2023-12-14T03:19:44;99338.66;;;33.27;31.66
63395;BME280;49531;-34.520;150.798;2023-12-14T03:22:11;99362.84;;;33.34;30.86
63395;BME280;49531;-34.520;150.798;2023-12-14T03:24:39;99336.78;;;33.38;30.05
63395;BME280;49531;-34.520;150.798;2023-12-14T03:27:06;99344.34;;;33.45;30.04
63395;BME280;49531;-34.520;150.798;2023-12-14T03:29:33;99344.44;;;33.52;30.76
63395;BME280;49531;-34.520;150.798;2023-12-14T03:32:01;99327.84;;;33.56;30.41
63395;BME280;49531;-34.520;150.798;2023-12-14T03:34:28;99343.69;;;33.59;30.23
63395;BME280;49531;-34.520;150.798;2023-12-14T03:36:55;99341.31;;;33.61;29.90
63395;BME280;49531;-34.520;150.798;2023-12-14T03:39:22;99356.78;;;33.65;30.79
63395;BME280;49531;-34.520;150.798;2023-12-14T03:41:49;99353.66;;;33.70;30.13
63395;BME280;49531;-34.520;150.798;2023-12-14T03:44:16;99352.50;;;33.71;29.97
63395;BME280;49531;-34.520;150.798;2023-12-14T03:46:43;99350.94;;;33.74;30.12
63395;BME280;49531;-34.520;150.798;2023-12-14T03:49:10;99336.28;;;33.73;30.24
63395;BME280;49531;-34.520;150.798;2023-12-14T03:51:37;99352.53;;;33.78;30.46
63395;BME280;49531;-34.520;150.798;2023-12-14T03:54:04;99334.78;;;33.79;30.33
63395;BME280;49531;-34.520;150.798;2023-12-14T03:56:32;99340.72;;;33.82;30.43
63395;BME280;49531;-34.520;150.798;2023-12-14T03:58:59;99341.94;;;33.84;30.98
63395;BME280;49531;-34.520;150.798;2023-12-14T04:01:26;99341.56;;;33.86;31.74
63395;BME280;49531;-34.520;150.798;2023-12-14T04:03:53;99324.16;;;33.85;31.90
63395;BME280;49531;-34.520;150.798;2023-12-14T04:06:20;99333.66;;;33.88;32.10
63395;BME280;49531;-34.520;150.798;2023-12-14T04:08:47;99333.66;;;33.88;31.88
63395;BME280;49531;-34.520;150.798;2023-12-14T04:11:14;99327.34;;;33.91;32.22
63395;BME280;49531;-34.520;150.798;2023-12-14T04:13:41;99316.28;;;33.91;32.03
63395;BME280;49531;-34.520;150.798;2023-12-14T04:16:09;99315.13;;;33.95;32.46
63395;BME280;49531;-34.520;150.798;2023-12-14T04:18:36;99320.28;;;33.97;32.72
63395;BME280;49531;-34.520;150.798;2023-12-14T04:21:04;99310.78;;;33.98;33.46
63395;BME280;49531;-34.520;150.798;2023-12-14T04:23:31;99321.84;;;33.98;32.86
63395;BME280;49531;-34.520;150.798;2023-12-14T04:25:58;99314.72;;;34.00;32.43
63395;BME280;49531;-34.520;150.798;2023-12-14T04:28:25;99311.19;;;34.03;32.38
63395;BME280;49531;-34.520;150.798;2023-12-14T04:30:52;99308.41;;;34.03;32.24
63395;BME280;49531;-34.520;150.798;2023-12-14T04:33:19;99317.53;;;34.04;32.07
63395;BME280;49531;-34.520;150.798;2023-12-14T04:35:47;99303.66;;;34.04;32.08
63395;BME280;49531;-34.520;150.798;2023-12-14T04:38:14;99308.44;;;34.07;32.46
63395;BME280;49531;-34.520;150.798;2023-12-14T04:40:41;99310.03;;;34.08;32.47
63395;BME280;49531;-34.520;150.798;2023-12-14T04:43:08;99295.78;;;34.09;32.54
63395;BME280;49531;-34.520;150.798;2023-12-14T04:45:35;99295.41;;;34.11;32.90
63395;BME280;49531;-34.520;150.798;2023-12-14T04:48:02;99301.72;;;34.11;32.28
63395;BME280;49531;-34.520;150.798;2023-12-14T04:50:29;99285.50;;;34.10;32.34
63395;BME280;49531;-34.520;150.798;2023-12-14T04:52:56;99293.81;;;34.10;32.28
63395;BME280;49531;-34.520;150.798;2023-12-14T04:55:23;99289.84;;;34.11;31.37
63395;BME280;49531;-34.520;150.798;2023-12-14T04:57:50;99276.00;;;34.11;31.28
63395;BME280;49531;-34.520;150.798;2023-12-14T05:00:17;99284.72;;;34.13;31.69
63395;BME280;49531;-34.520;150.798;2023-12-14T05:02:48;99292.63;;;34.11;31.95
63395;BME280;49531;-34.520;150.798;2023-12-14T05:05:15;99281.94;;;34.13;31.79
63395;BME280;49531;-34.520;150.798;2023-12-14T05:07:42;99279.19;;;34.13;31.33
63395;BME280;49531;-34.520;150.798;2023-12-14T05:10:12;99275.22;;;34.14;31.81
63395;BME280;49531;-34.520;150.798;2023-12-14T05:12:39;99279.97;;;34.13;31.69
63395;BME280;49531;-34.520;150.798;2023-12-14T05:15:07;99274.03;;;34.15;31.34
63395;BME280;49531;-34.520;150.798;2023-12-14T05:17:34;99276.00;;;34.11;31.75
63395;BME280;49531;-34.520;150.798;2023-12-14T05:20:08;99273.63;;;34.13;31.58
63395;BME280;49531;-34.520;150.798;2023-12-14T05:22:35;99269.28;;;34.12;31.40
63395;BME280;49531;-34.520;150.798;2023-12-14T05:25:03;99264.13;;;34.14;30.59
63395;BME280;49531;-34.520;150.798;2023-12-14T05:27:30;99282.34;;;34.15;30.77
63395;BME280;49531;-34.520;150.798;2023-12-14T05:29:57;99268.13;;;34.17;30.59
63395;BME280;49531;-34.520;150.798;2023-12-14T05:32:24;99268.88;;;34.13;30.98
63395;BME280;49531;-34.520;150.798;2023-12-14T05:34:51;99257.00;;;34.13;30.59
63395;BME280;49531;-34.520;150.798;2023-12-14T05:37:18;99253.84;;;34.15;30.79
63395;BME280;49531;-34.520;150.798;2023-12-14T05:39:45;99247.50;;;34.14;30.90
63395;BME280;49531;-34.520;150.798;2023-12-14T05:42:16;99259.38;;;34.11;31.62
63395;BME280;49531;-34.520;150.798;2023-12-14T05:44:44;99260.56;;;34.13;31.52
63395;BME280;49531;-34.520;150.798;2023-12-14T05:47:11;99264.94;;;34.15;31.52
63395;BME280;49531;-34.520;150.798;2023-12-14T05:49:42;99250.66;;;34.09;30.74
63395;BME280;49531;-34.520;150.798;2023-12-14T05:52:09;99248.66;;;34.09;30.69
63395;BME280;49531;-34.520;150.798;2023-12-14T05:54:39;99257.38;;;34.08;31.02
63395;BME280;49531;-34.520;150.798;2023-12-14T05:57:07;99253.41;;;34.09;30.83
63395;BME280;49531;-34.520;150.798;2023-12-14T05:59:34;99250.25;;;34.10;30.99
63395;BME280;49531;-34.520;150.798;2023-12-14T06:02:01;99259.75;;;34.09;30.76
63395;BME280;49531;-34.520;150.798;2023-12-14T06:04:28;99260.16;;;34.11;30.78
63395;BME280;49531;-34.520;150.798;2023-12-14T06:06:55;99259.34;;;34.07;30.78
63395;BME280;49531;-34.520;150.798;2023-12-14T06:09:24;99264.09;;;34.07;31.13
63395;BME280;49531;-34.520;150.798;2023-12-14T06:12:01;99260.16;;;34.08;31.39
63395;BME280;49531;-34.520;150.798;2023-12-14T06:14:28;99253.00;;;34.07;31.61
63395;BME280;49531;-34.520;150.798;2023-12-14T06:16:56;99253.00;;;34.07;31.45
63395;BME280;49531;-34.520;150.798;2023-12-14T06:19:23;99255.78;;;34.07;31.41
63395;BME280;49531;-34.520;150.798;2023-12-14T06:21:50;99255.00;;;34.06;31.43
63395;BME280;49531;-34.520;150.798;2023-12-14T06:24:18;99249.44;;;34.03;30.66
63395;BME280;49531;-34.520;150.798;2023-12-14T06:26:47;99272.78;;;34.02;30.66
63395;BME280;49531;-34.520;150.798;2023-12-14T06:29:14;99256.94;;;33.99;30.05
63395;BME280;49531;-34.520;150.798;2023-12-14T06:31:41;99264.84;;;34.00;30.17
63395;BME280;49531;-34.520;150.798;2023-12-14T06:34:08;99294.16;;;34.05;30.08
63395;BME280;49531;-34.520;150.798;2023-12-14T06:36:35;99286.63;;;34.02;30.13
63395;BME280;49531;-34.520;150.798;2023-12-14T06:39:02;99269.22;;;33.98;29.96
63395;BME280;49531;-34.520;150.798;2023-12-14T06:41:30;99277.53;;;33.98;30.26
63395;BME280;49531;-34.520;150.798;2023-12-14T06:43:57;99290.97;;;33.99;30.72
63395;BME280;49531;-34.520;150.798;2023-12-14T06:46:24;99290.97;;;33.99;30.57
63395;BME280;49531;-34.520;150.798;2023-12-14T06:48:51;99290.19;;;33.95;30.87
63395;BME280;49531;-34.520;150.798;2023-12-14T06:51:20;99290.19;;;33.95;31.02
63395;BME280;49531;-34.520;150.798;2023-12-14T06:53:47;99296.50;;;33.96;30.75
63395;BME280;49531;-34.520;150.798;2023-12-14T06:56:14;99290.97;;;33.96;29.68
63395;BME280;49531;-34.520;150.798;2023-12-14T06:58:43;99311.13;;;33.93;29.55
63395;BME280;49531;-34.520;150.798;2023-12-14T07:01:16;99304.41;;;33.94;29.47
63395;BME280;49531;-34.520;150.798;2023-12-14T07:03:44;99309.97;;;33.97;30.26
63395;BME280;49531;-34.520;150.798;2023-12-14T07:06:15;99311.13;;;33.93;31.01
63395;BME280;49531;-34.520;150.798;2023-12-14T07:08:42;99318.63;;;33.89;31.26
63395;BME280;49531;-34.520;150.798;2023-12-14T07:11:10;99318.97;;;33.84;31.04
63395;BME280;49531;-34.520;150.798;2023-12-14T07:13:38;99336.00;;;33.82;30.25
63395;BME280;49531;-34.520;150.798;2023-12-14T07:16:10;99342.00;;;33.91;29.98
63395;BME280;49531;-34.520;150.798;2023-12-14T07:18:38;99338.06;;;33.99;30.58
63395;BME280;49531;-34.520;150.798;2023-12-14T07:21:06;99339.31;;;34.05;30.14
63395;BME280;49531;-34.520;150.798;2023-12-14T07:23:34;99347.25;;;34.10;30.30
63395;BME280;49531;-34.520;150.798;2023-12-14T07:26:02;99342.50;;;34.11;30.85
63395;BME280;49531;-34.520;150.798;2023-12-14T07:28:29;99363.13;;;34.13;30.40
63395;BME280;49531;-34.520;150.798;2023-12-14T07:30:56;99352.03;;;34.13;29.30
63395;BME280;49531;-34.520;150.798;2023-12-14T07:33:23;99359.97;;;34.15;30.22
63395;BME280;49531;-34.520;150.798;2023-12-14T07:35:51;99359.19;;;34.18;30.66
63395;BME280;49531;-34.520;150.798;2023-12-14T07:38:18;99371.88;;;34.19;30.62
63395;BME280;49531;-34.520;150.798;2023-12-14T07:40:45;99378.59;;;34.18;30.39
63395;BME280;49531;-34.520;150.798;2023-12-14T07:43:15;99367.09;;;34.16;29.85
63395;BME280;49531;-34.520;150.798;2023-12-14T07:45:43;99367.88;;;34.17;30.45
63395;BME280;49531;-34.520;150.798;2023-12-14T07:48:10;99385.31;;;34.17;30.42
63395;BME280;49531;-34.520;150.798;2023-12-14T07:50:37;99386.91;;;34.18;30.31
63395;BME280;49531;-34.520;150.798;2023-12-14T07:53:04;99396.41;;;34.17;30.28
63395;BME280;49531;-34.520;150.798;2023-12-14T07:55:31;99407.50;;;34.17;30.42
63395;BME280;49531;-34.520;150.798;2023-12-14T07:57:59;99397.16;;;34.14;30.42
63395;BME280;49531;-34.520;150.798;2023-12-14T08:00:28;99404.34;;;34.19;30.26
63395;BME280;49531;-34.520;150.798;2023-12-14T08:02:55;99413.81;;;34.18;30.60
63395;BME280;49531;-34.520;150.798;2023-12-14T08:05:22;99431.63;;;34.17;30.51
63395;BME280;49531;-34.520;150.798;2023-12-14T08:07:49;99432.44;;;34.17;30.73
63395;BME280;49531;-34.520;150.798;2023-12-14T08:10:19;99422.50;;;34.12;30.35
63395;BME280;49531;-34.520;150.798;2023-12-14T08:12:46;99426.06;;;34.13;30.67
63395;BME280;49531;-34.520;150.798;2023-12-14T08:15:14;99441.50;;;34.14;30.86
63395;BME280;49531;-34.520;150.798;2023-12-14T08:17:41;99433.19;;;34.14;30.73
63395;BME280;49531;-34.520;150.798;2023-12-14T08:20:09;99443.88;;;34.12;31.29
63395;BME280;49531;-34.520;150.798;2023-12-14T08:22:37;99445.41;;;34.06;30.46
63395;BME280;49531;-34.520;150.798;2023-12-14T08:25:11;99464.44;;;34.11;30.43
63395;BME280;49531;-34.520;150.798;2023-12-14T08:27:39;99456.13;;;34.11;30.26
63395;BME280;49531;-34.520;150.798;2023-12-14T08:30:07;99466.44;;;34.10;29.89
63395;BME280;49531;-34.520;150.798;2023-12-14T08:32:35;99469.56;;;34.09;30.67
63395;BME280;49531;-34.520;150.798;2023-12-14T08:35:02;99479.06;;;34.08;30.32
63395;BME280;49531;-34.520;150.798;2023-12-14T08:37:29;99484.19;;;34.06;30.20
63395;BME280;49531;-34.520;150.798;2023-12-14T08:39:56;99487.34;;;34.04;30.61
63395;BME280;49531;-34.520;150.798;2023-12-14T08:42:23;99500.81;;;34.06;30.59
63395;BME280;49531;-34.520;150.798;2023-12-14T08:44:50;99515.84;;;34.05;30.52
63395;BME280;49531;-34.520;150.798;2023-12-14T08:47:17;99510.66;;;34.00;30.17
63395;BME280;49531;-34.520;150.798;2023-12-14T08:49:44;99520.56;;;33.97;29.46
63395;BME280;49531;-34.520;150.798;2023-12-14T08:52:11;99524.50;;;33.96;29.78
63395;BME280;49531;-34.520;150.798;2023-12-14T08:54:40;99537.16;;;33.94;30.91
63395;BME280;49531;-34.520;150.798;2023-12-14T08:57:11;99541.44;;;33.88;31.24
63395;BME280;49531;-34.520;150.798;2023-12-14T08:59:38;99552.53;;;33.88;31.64
63395;BME280;49531;-34.520;150.798;2023-12-14T09:02:06;99558.81;;;33.85;32.30
63395;BME280;49531;-34.520;150.798;2023-12-14T09:04:33;99555.63;;;33.83;32.57
63395;BME280;49531;-34.520;150.798;2023-12-14T09:07:02;99559.16;;;33.79;32.77
63395;BME280;49531;-34.520;150.798;2023-12-14T09:09:30;99577.31;;;33.77;33.17
63395;BME280;49531;-34.520;150.798;2023-12-14T09:11:58;99579.22;;;33.73;33.67
63395;BME280;49531;-34.520;150.798;2023-12-14T09:14:25;99577.22;;;33.70;33.72
63395;BME280;49531;-34.520;150.798;2023-12-14T09:16:53;99573.63;;;33.69;34.47
63395;BME280;49531;-34.520;150.798;2023-12-14T09:19:20;99582.72;;;33.66;35.03
63395;BME280;49531;-34.520;150.798;2023-12-14T09:21:47;99597.69;;;33.62;35.03
63395;BME280;49531;-34.520;150.798;2023-12-14T09:24:14;99594.09;;;33.58;35.59
63395;BME280;49531;-34.520;150.798;2023-12-14T09:26:41;99605.44;;;33.49;35.24
63395;BME280;49531;-34.520;150.798;2023-12-14T09:29:08;99612.50;;;33.43;35.78
63395;BME280;49531;-34.520;150.798;2023-12-14T09:31:35;99611.63;;;33.39;36.04
63395;BME280;49531;-34.520;150.798;2023-12-14T09:34:03;99630.97;;;33.35;36.25
63395;BME280;49531;-34.520;150.798;2023-12-14T09:36:30;99625.66;;;33.27;36.69
63395;BME280;49531;-34.520;150.798;2023-12-14T09:38:57;99640.63;;;33.22;36.47
63395;BME280;49531;-34.520;150.798;2023-12-14T09:41:24;99650.06;;;33.18;36.59
63395;BME280;49531;-34.520;150.798;2023-12-14T09:43:52;99660.72;;;33.16;36.98
63395;BME280;49531;-34.520;150.798;2023-12-14T09:46:21;99666.19;;;33.12;37.26
63395;BME280;49531;-34.520;150.798;2023-12-14T09:48:50;99675.59;;;33.07;37.04
63395;BME280;49531;-34.520;150.798;2023-12-14T09:51:17;99681.44;;;33.02;37.32
63395;BME280;49531;-34.520;150.798;2023-12-14T09:53:44;99686.13;;;32.98;37.40
63395;BME280;49531;-34.520;150.798;2023-12-14T09:56:12;99684.03;;;32.92;37.74
63395;BME280;49531;-34.520;150.798;2023-12-14T09:58:39;99695.97;;;32.96;37.07
63395;BME280;49531;-34.520;150.798;2023-12-14T10:01:24;99709.72;;;32.92;37.92
63395;BME280;49531;-34.520;150.798;2023-12-14T10:04:16;99715.56;;;32.87;37.95
63395;BME280;49531;-34.520;150.798;2023-12-14T10:06:46;99717.00;;;32.77;37.72
63395;BME280;49531;-34.520;150.798;2023-12-14T10:09:13;99725.13;;;32.70;38.30
63395;BME280;49531;-34.520;150.798;2023-12-14T10:11:43;99723.84;;;32.64;38.37
63395;BME280;49531;-34.520;150.798;2023-12-14T10:14:24;99734.03;;;32.60;38.63
63395;BME280;49531;-34.520;150.798;2023-12-14T10:16:52;99733.97;;;32.57;38.33
63395;BME280;49531;-34.520;150.798;2023-12-14T10:19:20;99742.19;;;32.53;38.87
63395;BME280;49531;-34.520;150.798;2023-12-14T10:21:48;99745.31;;;32.52;38.93
63395;BME280;49531;-34.520;150.798;2023-12-14T10:24:16;99749.59;;;32.49;38.79
63395;BME280;49531;-34.520;150.798;2023-12-14T10:26:45;99755.44;;;32.44;38.98
63395;BME280;49531;-34.520;150.798;2023-12-14T10:29:12;99769.94;;;32.37;39.40
63395;BME280;49531;-34.520;150.798;2023-12-14T10:31:40;99782.16;;;32.36;39.12
63395;BME280;49531;-34.520;150.798;2023-12-14T10:34:07;99781.00;;;32.37;39.34
63395;BME280;49531;-34.520;150.798;2023-12-14T10:36:35;99785.19;;;32.31;39.47
63395;BME280;49531;-34.520;150.798;2023-12-14T10:39:02;99792.97;;;32.26;39.45
63395;BME280;49531;-34.520;150.798;2023-12-14T10:41:31;99804.75;;;32.23;39.78
63395;BME280;49531;-34.520;150.798;2023-12-14T10:44:00;99808.56;;;32.18;39.77
63395;BME280;49531;-34.520;150.798;2023-12-14T10:46:28;99821.94;;;32.16;39.88
63395;BME280;49531;-34.520;150.798;2023-12-14T10:48:55;99806.00;;;32.09;39.96
63395;BME280;49531;-34.520;150.798;2023-12-14T10:51:26;99819.81;;;32.09;39.93
63395;BME280;49531;-34.520;150.798;2023-12-14T10:53:54;99828.47;;;32.08;40.05
63395;BME280;49531;-34.520;150.798;2023-12-14T10:56:23;99837.91;;;32.07;40.07
63395;BME280;49531;-34.520;150.798;2023-12-14T10:58:56;99843.34;;;32.03;40.09
63395;BME280;49531;-34.520;150.798;2023-12-14T11:01:24;99848.44;;;32.01;40.15
63395;BME280;49531;-34.520;150.798;2023-12-14T11:03:55;99850.34;;;31.97;40.24
63395;BME280;49531;-34.520;150.798;2023-12-14T11:06:31;99846.97;;;31.88;40.18
63395;BME280;49531;-34.520;150.798;2023-12-14T11:09:06;99847.25;;;31.83;40.30
63395;BME280;49531;-34.520;150.798;2023-12-14T11:11:42;99856.59;;;31.78;39.95
63395;BME280;49531;-34.520;150.798;2023-12-14T11:14:12;99868.81;;;31.77;40.38
63395;BME280;49531;-34.520;150.798;2023-12-14T11:16:40;99880.75;;;31.81;40.08
63395;BME280;49531;-34.520;150.798;2023-12-14T11:19:24;99878.25;;;31.76;40.32
63395;BME280;49531;-34.520;150.798;2023-12-14T11:24:22;99888.31;;;31.69;40.49
63395;BME280;49531;-34.520;150.798;2023-12-14T11:26:54;99894.19;;;31.67;40.39
63395;BME280;49531;-34.520;150.798;2023-12-14T11:29:21;99899.59;;;31.64;40.69
63395;BME280;49531;-34.520;150.798;2023-12-14T11:31:49;99895.78;;;31.53;40.94
63395;BME280;49531;-34.520;150.798;2023-12-14T11:34:17;99895.69;;;31.49;40.99
63395;BME280;49531;-34.520;150.798;2023-12-14T11:36:44;99903.06;;;31.45;41.07
63395;BME280;49531;-34.520;150.798;2023-12-14T11:39:12;99904.94;;;31.41;41.43
63395;BME280;49531;-34.520;150.798;2023-12-14T11:41:39;99909.28;;;31.42;41.37
63395;BME280;49531;-34.520;150.798;2023-12-14T11:44:06;99906.44;;;31.38;41.42
63395;BME280;49531;-34.520;150.798;2023-12-14T11:46:34;99917.03;;;31.36;41.61
63395;BME280;49531;-34.520;150.798;2023-12-14T11:49:01;99907.50;;;31.34;41.57
63395;BME280;49531;-34.520;150.798;2023-12-14T11:51:29;99918.44;;;31.30;41.69
63395;BME280;49531;-34.520;150.798;2023-12-14T11:54:00;99914.06;;;31.29;41.69
63395;BME280;49531;-34.520;150.798;2023-12-14T11:56:28;99919.13;;;31.27;41.79
63395;BME280;49531;-34.520;150.798;2023-12-14T11:58:57;99915.13;;;31.25;41.52
63395;BME280;49531;-34.520;150.798;2023-12-14T12:01:24;99926.06;;;31.21;41.83
63395;BME280;49531;-34.520;150.798;2023-12-14T12:03:52;99922.09;;;31.19;41.98
63395;BME280;49531;-34.520;150.798;2023-12-14T12:06:24;99923.59;;;31.16;41.59
63395;BME280;49531;-34.520;150.798;2023-12-14T12:08:52;99924.97;;;31.10;42.06
63395;BME280;49531;-34.520;150.798;2023-12-14T12:11:21;99927.97;;;31.05;42.14
63395;BME280;49531;-34.520;150.798;2023-12-14T12:13:52;99927.06;;;31.01;42.22
63395;BME280;49531;-34.520;150.798;2023-12-14T12:16:20;99934.63;;;31.04;41.70
63395;BME280;49531;-34.520;150.798;2023-12-14T12:18:47;99935.34;;;31.01;42.20
63395;BME280;49531;-34.520;150.798;2023-12-14T12:21:14;99938.78;;;30.98;42.08
63395;BME280;49531;-34.520;150.798;2023-12-14T12:23:41;99938.78;;;30.98;42.25
63395;BME280;49531;-34.520;150.798;2023-12-14T12:26:09;99941.91;;;30.96;42.06
63395;BME280;49531;-34.520;150.798;2023-12-14T12:28:37;99945.59;;;30.88;42.19
63395;BME280;49531;-34.520;150.798;2023-12-14T12:31:04;99939.97;;;30.84;42.17
63395;BME280;49531;-34.520;150.798;2023-12-14T12:33:31;99934.81;;;30.83;42.24
63395;BME280;49531;-34.520;150.798;2023-12-14T12:36:04;99948.41;;;30.76;42.47